sensor_id;sensor_type;location;lat;lon;timestamp;P1;durP1;ratioP1;P2;durP2;ratioP2
49183;SDS011;35021;49.214;12.270;2023-09-18T00:00:30;1.88;;;1.70;;
49183;SDS011;35021;49.214;12.270;2023-09-18T00:02:59;2.08;;;1.88;;
49183;SDS011;35021;49.214;12.270;2023-09-18T00:05:29;2.03;;;1.77;;
49183;SDS011;35021;49.214;12.270;2023-09-18T00:07:57;2.00;;;1.80;;
49183;SDS011;35021;49.214;12.270;2023-09-18T00:10:25;1.60;;;1.50;;
49183;SDS011;35021;49.214;12.270;2023-09-18T00:12:52;3.67;;;1.83;;
49183;SDS011;35021;49.214;12.270;2023-09-18T00:15:19;2.55;;;1.85;;
49183;SDS011;35021;49.214;12.270;2023-09-18T00:17:46;2.72;;;1.65;;
49183;SDS011;35021;49.214;12.270;2023-09-18T00:20:14;2.85;;;1.70;;
49183;SDS011;35021;49.214;12.270;2023-09-18T00:22:43;1.90;;;1.70;;
49183;SDS011;35021;49.214;12.270;2023-09-18T00:25:10;2.47;;;2.28;;
49183;SDS011;35021;49.214;12.270;2023-09-18T00:27:37;2.22;;;2.00;;
49183;SDS011;35021;49.214;12.270;2023-09-18T00:30:04;2.03;;;1.80;;
49183;SDS011;35021;49.214;12.270;2023-09-18T00:32:32;3.35;;;2.10;;
49183;SDS011;35021;49.214;12.270;2023-09-18T00:34:59;2.33;;;2.13;;
49183;SDS011;35021;49.214;12.270;2023-09-18T00:37:26;2.42;;;2.15;;
49183;SDS011;35021;49.214;12.270;2023-09-18T00:39:55;2.63;;;2.20;;
49183;SDS011;35021;49.214;12.270;2023-09-18T00:42:21;2.30;;;2.10;;
49183;SDS011;35021;49.214;12.270;2023-09-18T00:44:49;2.50;;;2.28;;
49183;SDS011;35021;49.214;12.270;2023-09-18T00:47:16;5.85;;;2.47;;
49183;SDS011;35021;49.214;12.270;2023-09-18T00:49:45;3.10;;;2.80;;
49183;SDS011;35021;49.214;12.270;2023-09-18T00:52:14;2.55;;;2.35;;
49183;SDS011;35021;49.214;12.270;2023-09-18T00:54:42;3.17;;;2.38;;
49183;SDS011;35021;49.214;12.270;2023-09-18T00:57:11;2.92;;;2.63;;
49183;SDS011;35021;49.214;12.270;2023-09-18T00:59:38;3.30;;;2.67;;
49183;SDS011;35021;49.214;12.270;2023-09-18T01:02:05;3.67;;;2.95;;
49183;SDS011;35021;49.214;12.270;2023-09-18T01:04:33;2.95;;;2.65;;
49183;SDS011;35021;49.214;12.270;2023-09-18T01:07:04;3.10;;;2.47;;
49183;SDS011;35021;49.214;12.270;2023-09-18T01:09:31;2.67;;;2.47;;
49183;SDS011;35021;49.214;12.270;2023-09-18T01:12:15;2.80;;;2.40;;
49183;SDS011;35021;49.214;12.270;2023-09-18T01:17:34;2.85;;;2.55;;
49183;SDS011;35021;49.214;12.270;2023-09-18T01:20:05;2.65;;;2.28;;
49183;SDS011;35021;49.214;12.270;2023-09-18T01:22:32;4.38;;;2.50;;
49183;SDS011;35021;49.214;12.270;2023-09-18T01:24:59;3.33;;;2.80;;
49183;SDS011;35021;49.214;12.270;2023-09-18T01:27:26;3.80;;;2.60;;
49183;SDS011;35021;49.214;12.270;2023-09-18T01:29:53;2.40;;;2.20;;
49183;SDS011;35021;49.214;12.270;2023-09-18T01:32:20;3.22;;;2.55;;
49183;SDS011;35021;49.214;12.270;2023-09-18T01:34:53;2.50;;;2.30;;
49183;SDS011;35021;49.214;12.270;2023-09-18T01:37:26;2.60;;;2.40;;
49183;SDS011;35021;49.214;12.270;2023-09-18T01:39:55;2.78;;;2.28;;
49183;SDS011;35021;49.214;12.270;2023-09-18T01:42:29;3.10;;;2.50;;
49183;SDS011;35021;49.214;12.270;2023-09-18T01:44:56;2.67;;;2.47;;
49183;SDS011;35021;49.214;12.270;2023-09-18T01:47:23;3.00;;;2.70;;
49183;SDS011;35021;49.214;12.270;2023-09-18T01:49:50;2.92;;;2.63;;
49183;SDS011;35021;49.214;12.270;2023-09-18T01:52:17;2.33;;;2.13;;
49183;SDS011;35021;49.214;12.270;2023-09-18T01:54:44;2.53;;;2.33;;
49183;SDS011;35021;49.214;12.270;2023-09-18T01:57:11;3.00;;;2.75;;
49183;SDS011;35021;49.214;12.270;2023-09-18T01:59:38;3.20;;;2.90;;
49183;SDS011;35021;49.214;12.270;2023-09-18T02:02:06;2.70;;;2.47;;
49183;SDS011;35021;49.214;12.270;2023-09-18T02:04:36;3.15;;;2.80;;
49183;SDS011;35021;49.214;12.270;2023-09-18T02:07:23;3.35;;;2.45;;
49183;SDS011;35021;49.214;12.270;2023-09-18T02:09:50;2.50;;;2.30;;
49183;SDS011;35021;49.214;12.270;2023-09-18T02:12:17;2.47;;;2.28;;
49183;SDS011;35021;49.214;12.270;2023-09-18T02:14:45;3.10;;;2.80;;
49183;SDS011;35021;49.214;12.270;2023-09-18T02:17:12;2.75;;;2.35;;
49183;SDS011;35021;49.214;12.270;2023-09-18T02:19:39;2.90;;;2.60;;
49183;SDS011;35021;49.214;12.270;2023-09-18T02:22:05;3.67;;;2.78;;
49183;SDS011;35021;49.214;12.270;2023-09-18T02:24:33;3.97;;;2.97;;
49183;SDS011;35021;49.214;12.270;2023-09-18T02:27:03;2.97;;;2.67;;
49183;SDS011;35021;49.214;12.270;2023-09-18T02:29:30;2.90;;;2.70;;
49183;SDS011;35021;49.214;12.270;2023-09-18T02:31:57;3.75;;;2.83;;
49183;SDS011;35021;49.214;12.270;2023-09-18T02:34:24;2.90;;;2.60;;
49183;SDS011;35021;49.214;12.270;2023-09-18T02:36:51;3.28;;;2.40;;
49183;SDS011;35021;49.214;12.270;2023-09-18T02:39:18;2.95;;;2.67;;
49183;SDS011;35021;49.214;12.270;2023-09-18T02:41:45;3.35;;;3.05;;
49183;SDS011;35021;49.214;12.270;2023-09-18T02:44:12;3.80;;;2.75;;
49183;SDS011;35021;49.214;12.270;2023-09-18T02:46:39;3.05;;;2.70;;
49183;SDS011;35021;49.214;12.270;2023-09-18T02:49:06;3.03;;;2.67;;
49183;SDS011;35021;49.214;12.270;2023-09-18T02:51:33;2.58;;;2.38;;
49183;SDS011;35021;49.214;12.270;2023-09-18T02:54:00;2.92;;;2.33;;
49183;SDS011;35021;49.214;12.270;2023-09-18T02:56:27;2.53;;;2.33;;
49183;SDS011;35021;49.214;12.270;2023-09-18T02:58:54;3.22;;;2.92;;
49183;SDS011;35021;49.214;12.270;2023-09-18T03:01:21;2.75;;;2.45;;
49183;SDS011;35021;49.214;12.270;2023-09-18T03:03:48;2.88;;;2.60;;
49183;SDS011;35021;49.214;12.270;2023-09-18T03:06:15;2.97;;;2.67;;
49183;SDS011;35021;49.214;12.270;2023-09-18T03:08:42;3.83;;;2.83;;
49183;SDS011;35021;49.214;12.270;2023-09-18T03:11:13;3.20;;;2.80;;
49183;SDS011;35021;49.214;12.270;2023-09-18T03:13:44;3.40;;;2.40;;
49183;SDS011;35021;49.214;12.270;2023-09-18T03:16:15;3.25;;;3.00;;
49183;SDS011;35021;49.214;12.270;2023-09-18T03:18:42;3.35;;;2.85;;
49183;SDS011;35021;49.214;12.270;2023-09-18T03:21:09;3.50;;;3.20;;
49183;SDS011;35021;49.214;12.270;2023-09-18T03:23:35;3.30;;;2.63;;
49183;SDS011;35021;49.214;12.270;2023-09-18T03:26:03;5.85;;;3.03;;
49183;SDS011;35021;49.214;12.270;2023-09-18T03:28:30;2.67;;;2.30;;
49183;SDS011;35021;49.214;12.270;2023-09-18T03:30:57;4.88;;;2.90;;
49183;SDS011;35021;49.214;12.270;2023-09-18T03:33:25;3.10;;;2.80;;
49183;SDS011;35021;49.214;12.270;2023-09-18T03:35:52;3.40;;;2.92;;
49183;SDS011;35021;49.214;12.270;2023-09-18T03:38:21;2.63;;;2.40;;
49183;SDS011;35021;49.214;12.270;2023-09-18T03:40:48;4.05;;;2.65;;
49183;SDS011;35021;49.214;12.270;2023-09-18T03:43:15;3.00;;;2.70;;
49183;SDS011;35021;49.214;12.270;2023-09-18T03:45:42;2.75;;;2.40;;
49183;SDS011;35021;49.214;12.270;2023-09-18T03:48:10;3.25;;;2.95;;
49183;SDS011;35021;49.214;12.270;2023-09-18T03:50:37;3.10;;;2.80;;
49183;SDS011;35021;49.214;12.270;2023-09-18T03:53:06;3.10;;;2.80;;
49183;SDS011;35021;49.214;12.270;2023-09-18T03:55:33;4.32;;;2.67;;
49183;SDS011;35021;49.214;12.270;2023-09-18T03:58:00;2.97;;;2.55;;
49183;SDS011;35021;49.214;12.270;2023-09-18T04:00:27;4.00;;;2.80;;
49183;SDS011;35021;49.214;12.270;2023-09-18T04:02:54;3.17;;;2.65;;
49183;SDS011;35021;49.214;12.270;2023-09-18T04:05:21;4.25;;;2.80;;
49183;SDS011;35021;49.214;12.270;2023-09-18T04:07:49;3.13;;;2.83;;
49183;SDS011;35021;49.214;12.270;2023-09-18T04:10:16;3.05;;;2.60;;
49183;SDS011;35021;49.214;12.270;2023-09-18T04:12:50;3.15;;;2.45;;
49183;SDS011;35021;49.214;12.270;2023-09-18T04:15:19;2.80;;;2.38;;
49183;SDS011;35021;49.214;12.270;2023-09-18T04:17:46;2.72;;;2.50;;
49183;SDS011;35021;49.214;12.270;2023-09-18T04:20:14;2.38;;;2.13;;
49183;SDS011;35021;49.214;12.270;2023-09-18T04:22:45;5.20;;;2.45;;
49183;SDS011;35021;49.214;12.270;2023-09-18T04:25:17;2.80;;;2.40;;
49183;SDS011;35021;49.214;12.270;2023-09-18T04:27:46;5.15;;;2.40;;
49183;SDS011;35021;49.214;12.270;2023-09-18T04:30:16;2.40;;;2.20;;
49183;SDS011;35021;49.214;12.270;2023-09-18T04:32:46;2.38;;;2.17;;
49183;SDS011;35021;49.214;12.270;2023-09-18T04:35:13;6.32;;;2.55;;
49183;SDS011;35021;49.214;12.270;2023-09-18T04:37:40;2.75;;;2.40;;
49183;SDS011;35021;49.214;12.270;2023-09-18T04:40:07;2.30;;;2.10;;
49183;SDS011;35021;49.214;12.270;2023-09-18T04:42:38;2.50;;;2.25;;
49183;SDS011;35021;49.214;12.270;2023-09-18T04:45:07;4.53;;;2.60;;
49183;SDS011;35021;49.214;12.270;2023-09-18T04:47:35;3.80;;;2.30;;
49183;SDS011;35021;49.214;12.270;2023-09-18T04:50:03;5.55;;;2.60;;
49183;SDS011;35021;49.214;12.270;2023-09-18T04:52:39;2.63;;;2.40;;
49183;SDS011;35021;49.214;12.270;2023-09-18T04:55:07;2.50;;;2.30;;
49183;SDS011;35021;49.214;12.270;2023-09-18T04:57:34;5.60;;;2.70;;
49183;SDS011;35021;49.214;12.270;2023-09-18T05:00:02;4.85;;;2.75;;
49183;SDS011;35021;49.214;12.270;2023-09-18T05:02:42;2.95;;;2.67;;
49183;SDS011;35021;49.214;12.270;2023-09-18T05:05:10;3.28;;;2.60;;
49183;SDS011;35021;49.214;12.270;2023-09-18T05:07:37;2.70;;;2.50;;
49183;SDS011;35021;49.214;12.270;2023-09-18T05:10:04;2.90;;;2.55;;
49183;SDS011;35021;49.214;12.270;2023-09-18T05:12:31;3.67;;;2.78;;
49183;SDS011;35021;49.214;12.270;2023-09-18T05:14:58;4.05;;;3.00;;
49183;SDS011;35021;49.214;12.270;2023-09-18T05:20:18;3.40;;;2.67;;
49183;SDS011;35021;49.214;12.270;2023-09-18T05:22:45;3.53;;;2.90;;
49183;SDS011;35021;49.214;12.270;2023-09-18T05:25:12;4.85;;;3.03;;
49183;SDS011;35021;49.214;12.270;2023-09-18T05:27:42;3.08;;;2.78;;
49183;SDS011;35021;49.214;12.270;2023-09-18T05:30:14;4.32;;;2.70;;
49183;SDS011;35021;49.214;12.270;2023-09-18T05:32:43;4.47;;;2.78;;
49183;SDS011;35021;49.214;12.270;2023-09-18T05:35:12;3.38;;;2.72;;
49183;SDS011;35021;49.214;12.270;2023-09-18T05:37:40;3.58;;;2.35;;
49183;SDS011;35021;49.214;12.270;2023-09-18T05:40:09;4.82;;;2.60;;
49183;SDS011;35021;49.214;12.270;2023-09-18T05:42:37;3.17;;;2.80;;
49183;SDS011;35021;49.214;12.270;2023-09-18T05:45:05;5.45;;;3.13;;
49183;SDS011;35021;49.214;12.270;2023-09-18T05:47:32;3.40;;;2.63;;
49183;SDS011;35021;49.214;12.270;2023-09-18T05:50:00;3.53;;;2.35;;
49183;SDS011;35021;49.214;12.270;2023-09-18T05:52:31;3.63;;;2.55;;
49183;SDS011;35021;49.214;12.270;2023-09-18T05:54:58;3.45;;;2.45;;
49183;SDS011;35021;49.214;12.270;2023-09-18T05:57:28;2.80;;;2.30;;
49183;SDS011;35021;49.214;12.270;2023-09-18T05:59:55;2.70;;;2.22;;
49183;SDS011;35021;49.214;12.270;2023-09-18T06:02:23;2.40;;;2.20;;
49183;SDS011;35021;49.214;12.270;2023-09-18T06:04:57;2.85;;;2.40;;
49183;SDS011;35021;49.214;12.270;2023-09-18T06:09:54;3.33;;;2.60;;
49183;SDS011;35021;49.214;12.270;2023-09-18T06:12:21;3.40;;;3.10;;
49183;SDS011;35021;49.214;12.270;2023-09-18T06:14:48;4.18;;;2.47;;
49183;SDS011;35021;49.214;12.270;2023-09-18T06:17:17;4.30;;;2.60;;
49183;SDS011;35021;49.214;12.270;2023-09-18T06:19:44;2.58;;;2.30;;
49183;SDS011;35021;49.214;12.270;2023-09-18T06:22:15;2.90;;;2.65;;
49183;SDS011;35021;49.214;12.270;2023-09-18T06:24:42;3.72;;;2.45;;
49183;SDS011;35021;49.214;12.270;2023-09-18T06:27:09;3.05;;;2.50;;
49183;SDS011;35021;49.214;12.270;2023-09-18T06:29:37;4.68;;;2.40;;
49183;SDS011;35021;49.214;12.270;2023-09-18T06:32:05;2.78;;;2.33;;
49183;SDS011;35021;49.214;12.270;2023-09-18T06:34:32;4.35;;;2.22;;
49183;SDS011;35021;49.214;12.270;2023-09-18T06:36:59;6.50;;;2.70;;
49183;SDS011;35021;49.214;12.270;2023-09-18T06:39:27;3.95;;;2.42;;
49183;SDS011;35021;49.214;12.270;2023-09-18T06:41:53;3.88;;;2.40;;
49183;SDS011;35021;49.214;12.270;2023-09-18T06:44:20;3.03;;;2.72;;
49183;SDS011;35021;49.214;12.270;2023-09-18T06:46:49;6.22;;;2.28;;
49183;SDS011;35021;49.214;12.270;2023-09-18T06:49:16;7.47;;;2.75;;
49183;SDS011;35021;49.214;12.270;2023-09-18T06:51:46;2.50;;;2.30;;
49183;SDS011;35021;49.214;12.270;2023-09-18T06:54:13;3.55;;;2.30;;
49183;SDS011;35021;49.214;12.270;2023-09-18T06:56:40;3.03;;;2.65;;
49183;SDS011;35021;49.214;12.270;2023-09-18T06:59:08;4.90;;;2.47;;
49183;SDS011;35021;49.214;12.270;2023-09-18T07:01:35;3.75;;;2.70;;
49183;SDS011;35021;49.214;12.270;2023-09-18T07:04:02;4.40;;;3.15;;
49183;SDS011;35021;49.214;12.270;2023-09-18T07:06:31;2.83;;;2.60;;
49183;SDS011;35021;49.214;12.270;2023-09-18T07:08:58;3.30;;;2.80;;
49183;SDS011;35021;49.214;12.270;2023-09-18T07:11:25;3.58;;;2.63;;
49183;SDS011;35021;49.214;12.270;2023-09-18T07:13:52;3.15;;;2.35;;
49183;SDS011;35021;49.214;12.270;2023-09-18T07:16:19;2.95;;;2.33;;
49183;SDS011;35021;49.214;12.270;2023-09-18T07:18:46;3.28;;;2.42;;
49183;SDS011;35021;49.214;12.270;2023-09-18T07:21:13;2.25;;;2.05;;
49183;SDS011;35021;49.214;12.270;2023-09-18T07:23:40;2.40;;;2.20;;
49183;SDS011;35021;49.214;12.270;2023-09-18T07:26:07;2.67;;;2.15;;
49183;SDS011;35021;49.214;12.270;2023-09-18T07:28:34;2.58;;;2.25;;
49183;SDS011;35021;49.214;12.270;2023-09-18T07:31:05;2.38;;;2.10;;
49183;SDS011;35021;49.214;12.270;2023-09-18T07:33:33;3.15;;;2.47;;
49183;SDS011;35021;49.214;12.270;2023-09-18T07:36:00;2.80;;;2.60;;
49183;SDS011;35021;49.214;12.270;2023-09-18T07:38:27;2.47;;;2.28;;
49183;SDS011;35021;49.214;12.270;2023-09-18T07:40:54;2.53;;;2.20;;
49183;SDS011;35021;49.214;12.270;2023-09-18T07:43:23;3.28;;;2.50;;
49183;SDS011;35021;49.214;12.270;2023-09-18T07:45:52;2.60;;;2.10;;
49183;SDS011;35021;49.214;12.270;2023-09-18T07:48:19;3.72;;;2.28;;
49183;SDS011;35021;49.214;12.270;2023-09-18T07:50:48;2.50;;;2.30;;
49183;SDS011;35021;49.214;12.270;2023-09-18T07:53:17;2.58;;;2.38;;
49183;SDS011;35021;49.214;12.270;2023-09-18T07:55:47;2.80;;;2.45;;
49183;SDS011;35021;49.214;12.270;2023-09-18T07:58:21;3.72;;;2.15;;
49183;SDS011;35021;49.214;12.270;2023-09-18T08:00:48;3.00;;;2.20;;
49183;SDS011;35021;49.214;12.270;2023-09-18T08:03:18;2.13;;;1.92;;
49183;SDS011;35021;49.214;12.270;2023-09-18T08:05:45;2.22;;;2.03;;
49183;SDS011;35021;49.214;12.270;2023-09-18T08:08:13;2.70;;;2.25;;
49183;SDS011;35021;49.214;12.270;2023-09-18T08:10:40;2.30;;;2.10;;
49183;SDS011;35021;49.214;12.270;2023-09-18T08:13:07;4.18;;;2.00;;
49183;SDS011;35021;49.214;12.270;2023-09-18T08:15:34;2.65;;;2.10;;
49183;SDS011;35021;49.214;12.270;2023-09-18T08:18:01;3.28;;;2.75;;
49183;SDS011;35021;49.214;12.270;2023-09-18T08:20:28;3.97;;;2.30;;
49183;SDS011;35021;49.214;12.270;2023-09-18T08:22:55;2.58;;;2.10;;
49183;SDS011;35021;49.214;12.270;2023-09-18T08:25:23;3.05;;;2.17;;
49183;SDS011;35021;49.214;12.270;2023-09-18T08:27:50;2.38;;;2.10;;
49183;SDS011;35021;49.214;12.270;2023-09-18T08:30:18;2.33;;;2.13;;
49183;SDS011;35021;49.214;12.270;2023-09-18T08:32:47;5.75;;;3.03;;
49183;SDS011;35021;49.214;12.270;2023-09-18T08:35:14;2.33;;;2.10;;
49183;SDS011;35021;49.214;12.270;2023-09-18T08:37:41;2.10;;;1.90;;
49183;SDS011;35021;49.214;12.270;2023-09-18T08:40:12;2.35;;;2.15;;
49183;SDS011;35021;49.214;12.270;2023-09-18T08:42:46;2.67;;;2.40;;
49183;SDS011;35021;49.214;12.270;2023-09-18T08:45:25;2.33;;;2.10;;
49183;SDS011;35021;49.214;12.270;2023-09-18T08:48:01;2.55;;;2.35;;
49183;SDS011;35021;49.214;12.270;2023-09-18T08:50:29;2.20;;;1.95;;
49183;SDS011;35021;49.214;12.270;2023-09-18T08:52:56;2.50;;;2.30;;
49183;SDS011;35021;49.214;12.270;2023-09-18T08:55:24;2.47;;;2.28;;
49183;SDS011;35021;49.214;12.270;2023-09-18T08:57:51;2.38;;;2.13;;
49183;SDS011;35021;49.214;12.270;2023-09-18T09:00:20;1.92;;;1.73;;
49183;SDS011;35021;49.214;12.270;2023-09-18T09:02:47;2.33;;;2.13;;
49183;SDS011;35021;49.214;12.270;2023-09-18T09:05:18;2.42;;;2.22;;
49183;SDS011;35021;49.214;12.270;2023-09-18T09:07:47;2.20;;;2.00;;
49183;SDS011;35021;49.214;12.270;2023-09-18T09:10:15;2.40;;;2.20;;
49183;SDS011;35021;49.214;12.270;2023-09-18T09:12:49;2.40;;;2.20;;
49183;SDS011;35021;49.214;12.270;2023-09-18T09:15:20;2.40;;;2.20;;
49183;SDS011;35021;49.214;12.270;2023-09-18T09:18:01;2.40;;;2.13;;
49183;SDS011;35021;49.214;12.270;2023-09-18T09:20:30;2.28;;;2.08;;
49183;SDS011;35021;49.214;12.270;2023-09-18T09:23:01;2.45;;;2.25;;
49183;SDS011;35021;49.214;12.270;2023-09-18T09:25:30;2.50;;;2.30;;
49183;SDS011;35021;49.214;12.270;2023-09-18T09:27:59;2.05;;;1.88;;
49183;SDS011;35021;49.214;12.270;2023-09-18T09:30:29;3.08;;;2.75;;
49183;SDS011;35021;49.214;12.270;2023-09-18T09:32:57;2.25;;;2.05;;
49183;SDS011;35021;49.214;12.270;2023-09-18T09:35:27;2.40;;;1.85;;
49183;SDS011;35021;49.214;12.270;2023-09-18T09:38:07;2.20;;;2.00;;
49183;SDS011;35021;49.214;12.270;2023-09-18T09:40:39;2.00;;;1.80;;
49183;SDS011;35021;49.214;12.270;2023-09-18T09:43:08;2.15;;;1.95;;
49183;SDS011;35021;49.214;12.270;2023-09-18T09:45:36;2.13;;;1.92;;
49183;SDS011;35021;49.214;12.270;2023-09-18T09:48:05;2.03;;;1.90;;
49183;SDS011;35021;49.214;12.270;2023-09-18T09:50:43;2.05;;;1.80;;
49183;SDS011;35021;49.214;12.270;2023-09-18T09:53:14;1.70;;;1.60;;
49183;SDS011;35021;49.214;12.270;2023-09-18T09:55:41;2.45;;;2.25;;
49183;SDS011;35021;49.214;12.270;2023-09-18T09:58:09;3.20;;;2.17;;
49183;SDS011;35021;49.214;12.270;2023-09-18T10:00:39;1.90;;;1.70;;
49183;SDS011;35021;49.214;12.270;2023-09-18T10:03:10;2.95;;;2.25;;
49183;SDS011;35021;49.214;12.270;2023-09-18T10:05:42;2.10;;;1.90;;
49183;SDS011;35021;49.214;12.270;2023-09-18T10:08:17;2.33;;;2.05;;
49183;SDS011;35021;49.214;12.270;2023-09-18T10:10:49;2.90;;;2.30;;
49183;SDS011;35021;49.214;12.270;2023-09-18T10:13:19;3.63;;;2.38;;
49183;SDS011;35021;49.214;12.270;2023-09-18T10:15:50;3.15;;;2.13;;
49183;SDS011;35021;49.214;12.270;2023-09-18T10:18:24;3.08;;;2.38;;
49183;SDS011;35021;49.214;12.270;2023-09-18T10:20:56;3.20;;;2.70;;
49183;SDS011;35021;49.214;12.270;2023-09-18T10:26:31;2.40;;;2.20;;
49183;SDS011;35021;49.214;12.270;2023-09-18T10:29:05;3.42;;;2.20;;
49183;SDS011;35021;49.214;12.270;2023-09-18T10:31:38;2.78;;;2.20;;
49183;SDS011;35021;49.214;12.270;2023-09-18T10:34:07;2.47;;;1.80;;
49183;SDS011;35021;49.214;12.270;2023-09-18T10:36:37;2.45;;;1.90;;
49183;SDS011;35021;49.214;12.270;2023-09-18T10:39:09;3.78;;;2.63;;
49183;SDS011;35021;49.214;12.270;2023-09-18T10:41:39;3.53;;;2.00;;
49183;SDS011;35021;49.214;12.270;2023-09-18T10:44:08;3.38;;;1.90;;
49183;SDS011;35021;49.214;12.270;2023-09-18T10:46:37;2.58;;;1.98;;
49183;SDS011;35021;49.214;12.270;2023-09-18T10:49:04;4.22;;;2.47;;
49183;SDS011;35021;49.214;12.270;2023-09-18T10:51:32;2.53;;;1.90;;
49183;SDS011;35021;49.214;12.270;2023-09-18T10:54:04;2.80;;;2.20;;
49183;SDS011;35021;49.214;12.270;2023-09-18T10:56:31;4.88;;;2.30;;
49183;SDS011;35021;49.214;12.270;2023-09-18T10:58:59;5.15;;;2.05;;
49183;SDS011;35021;49.214;12.270;2023-09-18T11:01:31;3.90;;;2.00;;
49183;SDS011;35021;49.214;12.270;2023-09-18T11:04:08;3.63;;;2.30;;
49183;SDS011;35021;49.214;12.270;2023-09-18T11:09:25;3.53;;;2.03;;
49183;SDS011;35021;49.214;12.270;2023-09-18T11:17:55;3.65;;;1.95;;
49183;SDS011;35021;49.214;12.270;2023-09-18T11:20:17;3.60;;;1.80;;
49183;SDS011;35021;49.214;12.270;2023-09-18T11:22:49;2.58;;;2.00;;
49183;SDS011;35021;49.214;12.270;2023-09-18T11:28:15;1.63;;;1.40;;
49183;SDS011;35021;49.214;12.270;2023-09-18T11:30:50;5.22;;;2.03;;
49183;SDS011;35021;49.214;12.270;2023-09-18T11:33:29;2.85;;;1.80;;
49183;SDS011;35021;49.214;12.270;2023-09-18T11:36:44;4.22;;;2.00;;
49183;SDS011;35021;49.214;12.270;2023-09-18T11:38:51;5.32;;;2.00;;
49183;SDS011;35021;49.214;12.270;2023-09-18T11:41:26;4.03;;;2.17;;
49183;SDS011;35021;49.214;12.270;2023-09-18T11:46:33;2.35;;;1.70;;
49183;SDS011;35021;49.214;12.270;2023-09-18T11:49:01;2.75;;;1.67;;
49183;SDS011;35021;49.214;12.270;2023-09-18T11:51:32;3.83;;;1.80;;
49183;SDS011;35021;49.214;12.270;2023-09-18T11:53:59;2.33;;;1.63;;
49183;SDS011;35021;49.214;12.270;2023-09-18T11:56:27;4.43;;;1.90;;
49183;SDS011;35021;49.214;12.270;2023-09-18T11:58:54;2.83;;;1.73;;
49183;SDS011;35021;49.214;12.270;2023-09-18T12:01:21;2.28;;;1.50;;
49183;SDS011;35021;49.214;12.270;2023-09-18T12:03:52;3.67;;;1.92;;
49183;SDS011;35021;49.214;12.270;2023-09-18T12:06:21;2.75;;;1.80;;
49183;SDS011;35021;49.214;12.270;2023-09-18T12:08:48;2.67;;;1.90;;
49183;SDS011;35021;49.214;12.270;2023-09-18T12:11:17;2.28;;;1.80;;
49183;SDS011;35021;49.214;12.270;2023-09-18T12:13:46;2.40;;;1.55;;
49183;SDS011;35021;49.214;12.270;2023-09-18T12:16:16;3.45;;;1.70;;
49183;SDS011;35021;49.214;12.270;2023-09-18T12:18:48;3.50;;;1.58;;
49183;SDS011;35021;49.214;12.270;2023-09-18T12:21:16;2.13;;;1.60;;
49183;SDS011;35021;49.214;12.270;2023-09-18T12:23:45;1.98;;;1.40;;
49183;SDS011;35021;49.214;12.270;2023-09-18T12:26:13;3.78;;;1.70;;
49183;SDS011;35021;49.214;12.270;2023-09-18T12:28:42;2.47;;;1.45;;
49183;SDS011;35021;49.214;12.270;2023-09-18T12:31:10;1.65;;;1.50;;
49183;SDS011;35021;49.214;12.270;2023-09-18T12:33:42;2.53;;;1.40;;
49183;SDS011;35021;49.214;12.270;2023-09-18T12:36:10;2.17;;;1.52;;
49183;SDS011;35021;49.214;12.270;2023-09-18T12:38:37;2.47;;;1.73;;
49183;SDS011;35021;49.214;12.270;2023-09-18T12:41:04;1.75;;;1.60;;
49183;SDS011;35021;49.214;12.270;2023-09-18T12:43:39;1.70;;;1.50;;
49183;SDS011;35021;49.214;12.270;2023-09-18T12:46:08;2.10;;;1.67;;
49183;SDS011;35021;49.214;12.270;2023-09-18T12:48:39;1.42;;;1.20;;
49183;SDS011;35021;49.214;12.270;2023-09-18T12:51:11;1.75;;;1.33;;
49183;SDS011;35021;49.214;12.270;2023-09-18T12:53:40;3.67;;;1.58;;
49183;SDS011;35021;49.214;12.270;2023-09-18T12:56:13;1.60;;;1.38;;
49183;SDS011;35021;49.214;12.270;2023-09-18T12:58:41;2.22;;;1.60;;
49183;SDS011;35021;49.214;12.270;2023-09-18T13:01:30;2.63;;;1.27;;
49183;SDS011;35021;49.214;12.270;2023-09-18T13:03:57;1.95;;;1.52;;
49183;SDS011;35021;49.214;12.270;2023-09-18T13:06:32;1.83;;;1.35;;
49183;SDS011;35021;49.214;12.270;2023-09-18T13:09:18;2.17;;;1.50;;
49183;SDS011;35021;49.214;12.270;2023-09-18T13:11:55;2.42;;;1.67;;
49183;SDS011;35021;49.214;12.270;2023-09-18T13:14:26;1.70;;;1.60;;
49183;SDS011;35021;49.214;12.270;2023-09-18T13:16:53;1.65;;;1.20;;
49183;SDS011;35021;49.214;12.270;2023-09-18T13:19:27;2.60;;;1.48;;
49183;SDS011;35021;49.214;12.270;2023-09-18T13:21:54;1.63;;;1.30;;
49183;SDS011;35021;49.214;12.270;2023-09-18T13:24:28;2.85;;;1.67;;
49183;SDS011;35021;49.214;12.270;2023-09-18T13:26:56;2.33;;;1.50;;
49183;SDS011;35021;49.214;12.270;2023-09-18T13:29:25;1.75;;;1.50;;
49183;SDS011;35021;49.214;12.270;2023-09-18T13:31:52;2.10;;;1.38;;
49183;SDS011;35021;49.214;12.270;2023-09-18T13:34:19;1.77;;;1.30;;
49183;SDS011;35021;49.214;12.270;2023-09-18T13:36:47;1.95;;;1.58;;
49183;SDS011;35021;49.214;12.270;2023-09-18T13:39:14;2.20;;;1.40;;
49183;SDS011;35021;49.214;12.270;2023-09-18T13:41:43;2.33;;;1.38;;
49183;SDS011;35021;49.214;12.270;2023-09-18T13:44:10;1.83;;;1.30;;
49183;SDS011;35021;49.214;12.270;2023-09-18T13:46:38;2.35;;;1.50;;
49183;SDS011;35021;49.214;12.270;2023-09-18T13:49:05;1.88;;;1.52;;
49183;SDS011;35021;49.214;12.270;2023-09-18T13:51:33;1.38;;;1.10;;
49183;SDS011;35021;49.214;12.270;2023-09-18T13:54:00;2.05;;;1.70;;
49183;SDS011;35021;49.214;12.270;2023-09-18T13:56:27;1.70;;;1.30;;
49183;SDS011;35021;49.214;12.270;2023-09-18T13:58:55;1.65;;;1.30;;
49183;SDS011;35021;49.214;12.270;2023-09-18T14:01:23;1.33;;;1.17;;
49183;SDS011;35021;49.214;12.270;2023-09-18T14:03:52;1.92;;;1.38;;
49183;SDS011;35021;49.214;12.270;2023-09-18T14:06:20;2.53;;;1.33;;
49183;SDS011;35021;49.214;12.270;2023-09-18T14:08:47;2.08;;;1.50;;
49183;SDS011;35021;49.214;12.270;2023-09-18T14:11:14;1.55;;;1.30;;
49183;SDS011;35021;49.214;12.270;2023-09-18T14:13:41;2.20;;;1.48;;
49183;SDS011;35021;49.214;12.270;2023-09-18T14:16:09;1.42;;;1.30;;
49183;SDS011;35021;49.214;12.270;2023-09-18T14:18:37;1.98;;;1.35;;
49183;SDS011;35021;49.214;12.270;2023-09-18T14:21:05;1.77;;;1.40;;
49183;SDS011;35021;49.214;12.270;2023-09-18T14:23:33;2.40;;;1.45;;
49183;SDS011;35021;49.214;12.270;2023-09-18T14:26:01;2.30;;;1.40;;
49183;SDS011;35021;49.214;12.270;2023-09-18T14:28:28;1.92;;;1.35;;
49183;SDS011;35021;49.214;12.270;2023-09-18T14:30:55;3.47;;;1.65;;
49183;SDS011;35021;49.214;12.270;2023-09-18T14:33:22;3.25;;;1.65;;
49183;SDS011;35021;49.214;12.270;2023-09-18T14:35:49;1.95;;;1.02;;
49183;SDS011;35021;49.214;12.270;2023-09-18T14:38:16;1.95;;;1.20;;
49183;SDS011;35021;49.214;12.270;2023-09-18T14:40:43;2.35;;;1.70;;
49183;SDS011;35021;49.214;12.270;2023-09-18T14:43:10;2.92;;;1.40;;
49183;SDS011;35021;49.214;12.270;2023-09-18T14:45:38;2.38;;;1.20;;
49183;SDS011;35021;49.214;12.270;2023-09-18T14:48:06;1.60;;;1.17;;
49183;SDS011;35021;49.214;12.270;2023-09-18T14:50:33;1.80;;;1.40;;
49183;SDS011;35021;49.214;12.270;2023-09-18T14:53:01;1.48;;;1.05;;
49183;SDS011;35021;49.214;12.270;2023-09-18T14:55:30;1.73;;;1.10;;
49183;SDS011;35021;49.214;12.270;2023-09-18T14:57:58;2.85;;;1.23;;
49183;SDS011;35021;49.214;12.270;2023-09-18T15:00:25;1.90;;;1.10;;
49183;SDS011;35021;49.214;12.270;2023-09-18T15:02:53;1.65;;;1.10;;
49183;SDS011;35021;49.214;12.270;2023-09-18T15:05:20;1.67;;;1.17;;
49183;SDS011;35021;49.214;12.270;2023-09-18T15:07:47;2.50;;;1.20;;